Time;durP1;ratioP1;P1;durP2;ratioP2;P2;SDS_P1;SDS_P2;PMS_P1;PMS_P2;Temp;Humidity;BMP_temperature;BMP_pressure;BME280_temperature;BME280_humidity;BME280_pressure;Samples;Min_cycle;Max_cycle;Signal;HPM_P1;HPM_P2
2022/06/09 00:01:45;;;;;;;2.65;1.20;;;;;;;;;;4951663;28;20417;-76
2022/06/09 00:04:30;;;;;;;3.15;1.70;;;;;;;;;;4952101;28;20039;-75
2022/06/09 00:07:07;;;;;;;1.40;1.30;;;;;;;;;;4952902;28;20035;-75
2022/06/09 00:09:46;;;;;;;3.40;1.10;;;;;;;;;;4951008;28;20110;-75
2022/06/09 00:12:12;;;;;;;2.30;1.13;;;;;;;;;;4953436;28;20066;-74
2022/06/09 00:14:38;;;;;;;2.00;1.40;;;;;;;;;;4951594;28;20098;-75
2022/06/09 00:17:05;;;;;;;5.32;1.30;;;;;;;;;;4953912;28;20059;-73
2022/06/09 00:19:31;;;;;;;3.08;1.20;;;;;;;;;;4950949;28;20034;-74
2022/06/09 00:21:57;;;;;;;2.30;1.10;;;;;;;;;;4951282;28;20039;-74
2022/06/09 00:24:22;;;;;;;2.30;1.60;;;;;;;;;;4951570;28;20090;-75
2022/06/09 00:26:48;;;;;;;1.80;1.30;;;;;;;;;;4951691;28;20114;-75
2022/06/09 00:29:13;;;;;;;1.92;1.17;;;;;;;;;;4936270;29;20031;-75
2022/06/09 00:31:39;;;;;;;3.22;1.35;;;;;;;;;;4933791;28;20054;-74
2022/06/09 00:34:05;;;;;;;3.05;1.10;;;;;;;;;;4949310;29;20399;-74
2022/06/09 00:36:31;;;;;;;10.18;1.45;;;;;;;;;;4950368;28;20447;-74
2022/06/09 00:38:57;;;;;;;1.35;1.25;;;;;;;;;;4952579;28;20403;-75
2022/06/09 00:41:24;;;;;;;4.20;1.58;;;;;;;;;;4934382;29;20054;-75
2022/06/09 00:43:50;;;;;;;1.20;0.93;;;;;;;;;;4951752;28;20070;-75
2022/06/09 00:46:21;;;;;;;1.55;1.20;;;;;;;;;;4949948;28;20043;-75
2022/06/09 00:48:55;;;;;;;4.88;1.50;;;;;;;;;;4936303;28;20043;-75
2022/06/09 00:51:39;;;;;;;3.42;1.30;;;;;;;;;;4936249;29;20085;-74
2022/06/09 00:54:28;;;;;;;3.30;1.10;;;;;;;;;;4953063;28;20019;-75
2022/06/09 00:57:05;;;;;;;5.63;1.02;;;;;;;;;;4949030;28;20039;-74
2022/06/09 00:59:34;;;;;;;5.13;1.20;;;;;;;;;;4932570;29;20573;-73
2022/06/09 01:02:02;;;;;;;4.75;1.30;;;;;;;;;;4938092;29;20463;-74
2022/06/09 01:04:31;;;;;;;3.88;1.20;;;;;;;;;;4948939;29;20422;-74
2022/06/09 01:07:06;;;;;;;1.38;1.23;;;;;;;;;;4949842;28;20047;-74
2022/06/09 01:09:32;;;;;;;4.72;1.20;;;;;;;;;;4950272;28;20038;-75
2022/06/09 01:11:59;;;;;;;6.00;1.33;;;;;;;;;;4948810;28;20379;-75
2022/06/09 01:14:28;;;;;;;2.92;1.20;;;;;;;;;;4948588;28;20043;-75
2022/06/09 01:17:18;;;;;;;3.42;1.48;;;;;;;;;;4950948;28;20043;-75
2022/06/09 01:19:53;;;;;;;2.25;1.60;;;;;;;;;;4950150;28;20119;-74
2022/06/09 01:22:42;;;;;;;1.70;1.30;;;;;;;;;;4950013;28;20570;-75
2022/06/09 01:25:36;;;;;;;1.08;1.02;;;;;;;;;;4950743;28;20059;-75
2022/06/09 01:28:14;;;;;;;;;;;;;;;;;;4950044;28;20150;-74
2022/06/09 01:30:49;;;;;;;4.05;1.50;;;;;;;;;;4949527;28;19924;-74
2022/06/09 01:33:24;;;;;;;5.85;1.42;;;;;;;;;;4947853;28;20027;-75
2022/06/09 01:36:14;;;;;;;5.38;1.40;;;;;;;;;;4949740;28;20126;-76
2022/06/09 01:38:56;;;;;;;2.70;1.20;;;;;;;;;;4947813;28;20110;-75
2022/06/09 01:41:24;;;;;;;3.20;1.50;;;;;;;;;;4951272;28;20038;-75
2022/06/09 01:43:52;;;;;;;5.53;1.80;;;;;;;;;;4952792;28;20043;-75
2022/06/09 01:46:24;;;;;;;4.95;1.52;;;;;;;;;;4950714;28;20047;-72
2022/06/09 01:48:53;;;;;;;2.33;1.60;;;;;;;;;;4951668;28;20043;-75
2022/06/09 01:51:21;;;;;;;4.00;1.30;;;;;;;;;;4951684;28;20027;-74
2022/06/09 01:53:55;;;;;;;4.63;1.67;;;;;;;;;;4932908;29;20114;-75
2022/06/09 01:56:58;;;;;;;6.47;1.63;;;;;;;;;;4948913;28;20107;-75
2022/06/09 01:59:38;;;;;;;4.38;1.50;;;;;;;;;;4894544;29;20040;-75
2022/06/09 02:02:12;;;;;;;4.15;1.45;;;;;;;;;;4944470;28;20441;-74
2022/06/09 02:04:43;;;;;;;6.70;1.52;;;;;;;;;;4932378;28;20573;-75
2022/06/09 02:07:10;;;;;;;2.88;1.30;;;;;;;;;;4949803;28;20045;-75
2022/06/09 02:09:37;;;;;;;6.13;1.50;;;;;;;;;;4949255;28;20499;-73
2022/06/09 02:12:10;;;;;;;11.60;1.85;;;;;;;;;;4955095;28;20035;-75
2022/06/09 02:14:39;;;;;;;5.05;1.60;;;;;;;;;;4948381;28;20114;-74
2022/06/09 02:17:07;;;;;;;4.93;1.50;;;;;;;;;;4949170;28;20069;-74
2022/06/09 02:19:33;;;;;;;4.03;1.60;;;;;;;;;;4948129;28;20035;-74
2022/06/09 02:21:59;;;;;;;4.93;1.88;;;;;;;;;;4948527;28;20498;-74
2022/06/09 02:24:27;;;;;;;4.20;1.58;;;;;;;;;;4949154;28;20039;-74
2022/06/09 02:26:52;;;;;;;3.67;1.50;;;;;;;;;;4949335;28;20027;-74
2022/06/09 02:29:43;;;;;;;4.10;1.60;;;;;;;;;;4949839;28;20549;-73
2022/06/09 02:32:09;;;;;;;7.70;1.90;;;;;;;;;;4946633;28;20051;-74
2022/06/09 02:34:34;;;;;;;8.05;1.85;;;;;;;;;;4948860;28;20127;-74
2022/06/09 02:37:00;;;;;;;1.98;1.20;;;;;;;;;;4948934;29;20036;-74
2022/06/09 02:39:26;;;;;;;3.25;1.38;;;;;;;;;;4934123;29;20043;-76
2022/06/09 02:41:51;;;;;;;4.57;1.35;;;;;;;;;;4935022;29;20646;-75
2022/06/09 02:44:17;;;;;;;3.40;1.42;;;;;;;;;;4950254;28;20039;-74
2022/06/09 02:46:43;;;;;;;4.85;1.40;;;;;;;;;;4936278;29;20050;-75
2022/06/09 02:49:28;;;;;;;5.45;1.40;;;;;;;;;;4949560;28;20044;-75
2022/06/09 02:51:54;;;;;;;2.88;1.75;;;;;;;;;;4934738;29;20039;-75
2022/06/09 02:54:20;;;;;;;3.42;1.17;;;;;;;;;;4950613;28;20138;-75
2022/06/09 02:56:46;;;;;;;2.50;1.42;;;;;;;;;;4919808;28;20089;-75
2022/06/09 02:59:12;;;;;;;1.63;1.20;;;;;;;;;;4949381;28;20039;-75
2022/06/09 03:01:38;;;;;;;4.65;1.45;;;;;;;;;;4954097;28;20047;-75
2022/06/09 03:04:05;;;;;;;5.40;1.75;;;;;;;;;;4953645;28;20043;-75
2022/06/09 03:06:30;;;;;;;11.70;1.60;;;;;;;;;;4954888;28;20481;-75
2022/06/09 03:08:56;;;;;;;5.15;1.60;;;;;;;;;;4952792;29;20043;-74
2022/06/09 03:11:21;;;;;;;4.68;1.75;;;;;;;;;;4938952;29;20058;-74
2022/06/09 03:13:47;;;;;;;10.73;1.85;;;;;;;;;;4951594;28;20050;-75
2022/06/09 03:16:14;;;;;;;5.78;1.67;;;;;;;;;;4954266;28;20032;-75
2022/06/09 03:18:39;;;;;;;5.80;2.00;;;;;;;;;;4951494;28;20444;-75
2022/06/09 03:21:05;;;;;;;5.05;1.58;;;;;;;;;;4952897;28;20067;-74
2022/06/09 03:23:31;;;;;;;7.40;2.17;;;;;;;;;;4953103;28;20043;-75
2022/06/09 03:25:58;;;;;;;5.10;1.60;;;;;;;;;;4950986;28;20043;-75
2022/06/09 03:28:23;;;;;;;2.33;1.77;;;;;;;;;;4951849;28;20114;-74
2022/06/09 03:30:49;;;;;;;3.97;1.55;;;;;;;;;;4953283;28;20079;-75
2022/06/09 03:33:14;;;;;;;5.85;1.85;;;;;;;;;;4953445;28;20427;-74
2022/06/09 03:35:40;;;;;;;5.05;1.80;;;;;;;;;;4953522;28;20042;-74
2022/06/09 03:38:06;;;;;;;3.88;1.80;;;;;;;;;;4941166;29;20042;-75
2022/06/09 03:40:32;;;;;;;6.35;1.90;;;;;;;;;;4951054;28;20138;-74
2022/06/09 03:42:59;;;;;;;5.10;1.80;;;;;;;;;;4951056;28;20042;-74
2022/06/09 03:45:25;;;;;;;4.95;1.52;;;;;;;;;;4954797;28;20047;-75
2022/06/09 03:47:50;;;;;;;8.85;2.15;;;;;;;;;;4952142;28;20042;-75
2022/06/09 03:50:21;;;;;;;7.45;1.67;;;;;;;;;;4952718;28;20050;-75
2022/06/09 03:52:48;;;;;;;8.45;2.08;;;;;;;;;;4952545;28;20042;-75
2022/06/09 03:55:14;;;;;;;5.15;1.58;;;;;;;;;;4951504;28;20135;-76
2022/06/09 03:57:39;;;;;;;6.57;1.50;;;;;;;;;;4951000;28;20114;-75
2022/06/09 04:00:08;;;;;;;4.45;2.10;;;;;;;;;;4949659;28;20144;-74
2022/06/09 04:02:33;;;;;;;3.72;1.45;;;;;;;;;;4951323;29;20047;-75
2022/06/09 04:04:59;;;;;;;5.38;1.80;;;;;;;;;;4950749;28;20048;-75
2022/06/09 04:07:25;;;;;;;3.85;2.17;;;;;;;;;;4950452;29;20036;-74
2022/06/09 04:09:51;;;;;;;4.43;1.70;;;;;;;;;;4950413;28;20517;-75
2022/06/09 04:12:16;;;;;;;6.20;2.03;;;;;;;;;;4951177;28;20102;-75
2022/06/09 04:14:42;;;;;;;6.70;1.73;;;;;;;;;;4939489;28;20491;-76
2022/06/09 04:17:11;;;;;;;4.63;1.60;;;;;;;;;;4951666;28;20038;-74
2022/06/09 04:19:36;;;;;;;6.38;1.80;;;;;;;;;;4949718;28;20043;-75
2022/06/09 04:22:02;;;;;;;4.65;1.77;;;;;;;;;;4950391;28;20047;-75
2022/06/09 04:24:27;;;;;;;5.00;1.80;;;;;;;;;;4952434;28;20118;-75
2022/06/09 04:26:52;;;;;;;9.18;1.98;;;;;;;;;;4951422;28;20107;-74
2022/06/09 04:29:18;;;;;;;7.40;1.88;;;;;;;;;;4951737;28;20062;-75
2022/06/09 04:31:43;;;;;;;5.32;1.85;;;;;;;;;;4950238;28;20039;-74
2022/06/09 04:34:09;;;;;;;9.35;2.05;;;;;;;;;;4950501;28;20042;-75
2022/06/09 04:36:36;;;;;;;4.93;1.65;;;;;;;;;;4938876;29;20023;-74
2022/06/09 04:39:04;;;;;;;6.35;1.90;;;;;;;;;;4938649;29;20039;-75
2022/06/09 04:41:29;;;;;;;7.28;1.60;;;;;;;;;;4952882;28;20399;-74
2022/06/09 04:43:57;;;;;;;9.55;1.90;;;;;;;;;;4951124;28;20036;-75
2022/06/09 04:46:23;;;;;;;7.35;2.65;;;;;;;;;;4949632;28;20057;-74
2022/06/09 04:48:49;;;;;;;10.13;1.88;;;;;;;;;;4950114;28;20043;-74
2022/06/09 04:51:18;;;;;;;6.70;2.08;;;;;;;;;;4951404;28;20082;-75
2022/06/09 04:53:44;;;;;;;5.80;2.03;;;;;;;;;;4936757;29;20043;-74
2022/06/09 04:56:10;;;;;;;4.10;1.50;;;;;;;;;;4950070;28;20131;-75
2022/06/09 04:58:39;;;;;;;4.22;1.90;;;;;;;;;;4949299;28;20042;-75
2022/06/09 05:01:06;;;;;;;5.13;1.80;;;;;;;;;;4947906;28;20086;-74
2022/06/09 05:03:32;;;;;;;5.93;1.90;;;;;;;;;;4954303;28;20038;-75
2022/06/09 05:05:58;;;;;;;6.85;1.70;;;;;;;;;;4951243;28;20563;-74
2022/06/09 05:08:24;;;;;;;5.75;1.30;;;;;;;;;;4952830;28;20063;-74
2022/06/09 05:10:49;;;;;;;3.97;1.30;;;;;;;;;;4951895;29;20125;-76
2022/06/09 05:13:15;;;;;;;9.93;1.50;;;;;;;;;;4951186;28;20050;-75
2022/06/09 05:15:49;;;;;;;6.90;1.50;;;;;;;;;;4949516;28;20097;-76
2022/06/09 05:18:15;;;;;;;8.13;1.42;;;;;;;;;;4936139;28;20038;-75
2022/06/09 05:20:41;;;;;;;5.38;1.13;;;;;;;;;;4952177;28;20043;-75
2022/06/09 05:23:06;;;;;;;5.00;1.42;;;;;;;;;;4949035;28;20488;-75
2022/06/09 05:25:32;;;;;;;7.18;1.95;;;;;;;;;;4952022;28;20167;-74
2022/06/09 05:27:59;;;;;;;7.93;1.65;;;;;;;;;;4948848;28;20388;-74
2022/06/09 05:30:24;;;;;;;7.43;1.10;;;;;;;;;;4933073;29;20473;-75
2022/06/09 05:32:51;;;;;;;4.68;1.15;;;;;;;;;;4949341;28;20587;-77
2022/06/09 05:35:18;;;;;;;5.93;1.50;;;;;;;;;;4951110;28;21114;-73
2022/06/09 05:46:00;;;;;;;7.20;1.30;;;;;;;;;;4946779;28;20127;-75
2022/06/09 05:48:25;;;;;;;7.65;1.40;;;;;;;;;;4949386;28;20114;-75
2022/06/09 05:50:52;;;;;;;7.15;1.02;;;;;;;;;;4948325;28;20031;-74
2022/06/09 05:53:18;;;;;;;3.85;1.23;;;;;;;;;;4935136;29;20063;-75
2022/06/09 05:55:43;;;;;;;6.38;1.60;;;;;;;;;;4947003;28;20039;-75
2022/06/09 05:58:10;;;;;;;5.03;1.25;;;;;;;;;;4948914;28;20094;-74
2022/06/09 06:00:37;;;;;;;5.85;1.33;;;;;;;;;;4949149;28;20309;-74
2022/06/09 06:03:03;;;;;;;9.18;1.30;;;;;;;;;;4948888;28;20030;-74
2022/06/09 06:08:12;;;;;;;5.20;1.30;;;;;;;;;;4948217;28;20123;-75
2022/06/09 06:10:38;;;;;;;6.03;1.35;;;;;;;;;;4950151;28;20122;-75
2022/06/09 06:13:04;;;;;;;6.80;1.27;;;;;;;;;;4950146;28;20145;-75
2022/06/09 06:15:29;;;;;;;6.47;1.67;;;;;;;;;;4948615;28;20732;-75
2022/06/09 06:17:55;;;;;;;5.82;1.33;;;;;;;;;;4950955;28;20041;-76
2022/06/09 06:20:21;;;;;;;6.00;1.60;;;;;;;;;;4950013;28;20094;-75
2022/06/09 06:22:47;;;;;;;8.48;1.45;;;;;;;;;;4950904;28;20154;-74
2022/06/09 06:25:14;;;;;;;6.13;1.45;;;;;;;;;;4950105;28;20131;-78
2022/06/09 06:27:39;;;;;;;4.55;1.30;;;;;;;;;;4949824;28;20744;-76
2022/06/09 06:30:06;;;;;;;7.93;1.40;;;;;;;;;;4949562;28;20046;-74
2022/06/09 06:32:32;;;;;;;4.90;1.30;;;;;;;;;;4950094;28;20098;-75
2022/06/09 06:34:57;;;;;;;6.00;1.05;;;;;;;;;;4941708;29;20917;-75
2022/06/09 06:37:23;;;;;;;6.03;1.25;;;;;;;;;;4944936;28;20043;-76
2022/06/09 06:39:49;;;;;;;4.30;1.20;;;;;;;;;;4955196;28;20121;-76
2022/06/09 06:42:15;;;;;;;5.32;1.42;;;;;;;;;;4954251;28;20038;-74
2022/06/09 06:44:41;;;;;;;7.53;1.65;;;;;;;;;;4954854;28;20403;-76
2022/06/09 06:47:06;;;;;;;7.82;1.50;;;;;;;;;;4953386;28;20047;-76
2022/06/09 06:49:32;;;;;;;9.57;1.40;;;;;;;;;;4956953;29;20066;-77
2022/06/09 06:51:57;;;;;;;8.25;1.38;;;;;;;;;;4958132;28;20126;-76
2022/06/09 06:54:22;;;;;;;4.28;1.38;;;;;;;;;;4956138;28;20020;-77
2022/06/09 06:56:48;;;;;;;4.82;1.40;;;;;;;;;;4948229;29;20058;-77
2022/06/09 06:59:13;;;;;;;5.72;1.27;;;;;;;;;;4956396;28;20070;-76
2022/06/09 07:01:38;;;;;;;4.03;1.08;;;;;;;;;;4955469;28;20103;-76
2022/06/09 07:04:04;;;;;;;6.78;1.27;;;;;;;;;;4954685;28;20039;-76
2022/06/09 07:06:30;;;;;;;6.65;1.48;;;;;;;;;;4959597;28;20035;-77
2022/06/09 07:08:55;;;;;;;10.02;1.40;;;;;;;;;;4948812;29;20033;-75
2022/06/09 07:11:21;;;;;;;6.57;1.48;;;;;;;;;;4953789;28;20047;-76
2022/06/09 07:13:46;;;;;;;7.65;1.20;;;;;;;;;;4954378;28;20042;-74
2022/06/09 07:16:12;;;;;;;8.18;1.35;;;;;;;;;;4955362;28;20043;-75
2022/06/09 07:18:38;;;;;;;8.60;1.33;;;;;;;;;;4945671;28;20475;-75
2022/06/09 07:21:05;;;;;;;4.88;1.80;;;;;;;;;;4956204;28;20027;-75
2022/06/09 07:23:31;;;;;;;7.40;1.63;;;;;;;;;;4966673;28;20035;-76
2022/06/09 07:25:58;;;;;;;5.03;1.20;;;;;;;;;;4947390;28;20087;-75
2022/06/09 07:28:25;;;;;;;9.18;1.65;;;;;;;;;;4947357;28;20459;-75
2022/06/09 07:30:56;;;;;;;7.80;1.05;;;;;;;;;;4957124;28;20159;-75
2022/06/09 07:33:22;;;;;;;7.20;1.40;;;;;;;;;;4953539;28;20020;-75
2022/06/09 07:35:51;;;;;;;6.30;1.25;;;;;;;;;;4949692;28;20066;-76
2022/06/09 07:38:18;;;;;;;5.15;1.10;;;;;;;;;;4944429;28;20039;-75
2022/06/09 07:40:43;;;;;;;7.53;1.42;;;;;;;;;;4956669;28;20049;-75
2022/06/09 07:43:09;;;;;;;4.75;1.40;;;;;;;;;;4955340;28;20027;-74
2022/06/09 07:45:35;;;;;;;5.63;1.52;;;;;;;;;;4952247;28;20031;-75
2022/06/09 07:48:01;;;;;;;5.18;1.35;;;;;;;;;;4953494;29;20035;-74
2022/06/09 07:50:27;;;;;;;9.73;1.33;;;;;;;;;;4953070;28;20050;-75
2022/06/09 07:52:53;;;;;;;5.18;1.45;;;;;;;;;;4954405;29;20090;-74
2022/06/09 07:55:22;;;;;;;7.05;1.60;;;;;;;;;;4950032;28;20043;-74
2022/06/09 07:57:47;;;;;;;5.40;1.40;;;;;;;;;;4951900;28;20110;-76
2022/06/09 08:00:13;;;;;;;6.05;1.70;;;;;;;;;;4949676;28;20042;-75
2022/06/09 08:02:40;;;;;;;6.00;1.08;;;;;;;;;;4952468;28;20055;-73
2022/06/09 08:05:06;;;;;;;7.90;1.60;;;;;;;;;;4937978;29;20094;-75
2022/06/09 08:07:32;;;;;;;7.05;1.60;;;;;;;;;;4949799;28;20058;-76
2022/06/09 08:09:58;;;;;;;5.65;1.45;;;;;;;;;;4953257;28;20066;-76
2022/06/09 08:12:24;;;;;;;4.32;1.55;;;;;;;;;;4940105;28;20027;-75
2022/06/09 08:14:49;;;;;;;3.28;1.10;;;;;;;;;;4953466;28;20019;-75
2022/06/09 08:17:14;;;;;;;6.53;2.00;;;;;;;;;;4953158;29;20035;-75
2022/06/09 08:19:40;;;;;;;5.55;1.50;;;;;;;;;;4953003;29;20054;-75
2022/06/09 08:22:05;;;;;;;4.78;1.48;;;;;;;;;;4953328;28;20573;-75
2022/06/09 08:24:34;;;;;;;5.38;1.65;;;;;;;;;;4953924;28;20213;-75
2022/06/09 08:27:01;;;;;;;5.30;1.40;;;;;;;;;;4953785;28;20023;-75
2022/06/09 08:29:26;;;;;;;7.00;1.23;;;;;;;;;;4952829;28;20051;-75
2022/06/09 08:31:52;;;;;;;4.85;1.50;;;;;;;;;;4954455;28;20483;-75
2022/06/09 08:34:18;;;;;;;5.28;1.20;;;;;;;;;;4938603;29;20043;-76
2022/06/09 08:36:44;;;;;;;6.38;1.58;;;;;;;;;;4953096;28;20142;-75
2022/06/09 08:39:10;;;;;;;11.15;1.52;;;;;;;;;;4953402;28;20395;-75
2022/06/09 08:41:50;;;;;;;8.00;1.42;;;;;;;;;;4952461;29;20353;-76
2022/06/09 08:44:36;;;;;;;5.50;1.20;;;;;;;;;;4952360;28;20035;-75
2022/06/09 08:47:30;;;;;;;2.50;0.90;;;;;;;;;;4941001;29;20380;-76
2022/06/09 08:50:05;;;;;;;2.63;0.88;;;;;;;;;;4951666;29;20062;-76
2022/06/09 08:52:52;;;;;;;3.45;1.20;;;;;;;;;;4952248;28;20044;-75
2022/06/09 08:55:20;;;;;;;3.42;1.10;;;;;;;;;;4953591;28;20491;-75
2022/06/09 08:57:47;;;;;;;6.03;1.20;;;;;;;;;;4953396;28;20035;-75
2022/06/09 09:00:18;;;;;;;4.60;1.15;;;;;;;;;;4946310;29;20030;-75
2022/06/09 09:02:54;;;;;;;4.72;0.90;;;;;;;;;;4954063;28;20047;-76
2022/06/09 09:05:31;;;;;;;5.63;0.80;;;;;;;;;;4953873;28;20499;-76
2022/06/09 09:07:59;;;;;;;6.70;1.60;;;;;;;;;;4953289;28;20035;-76
2022/06/09 09:10:48;;;;;;;3.35;1.40;;;;;;;;;;4952516;28;20055;-76
2022/06/09 09:13:44;;;;;;;4.88;0.98;;;;;;;;;;4953125;28;20046;-76
2022/06/09 09:16:20;;;;;;;5.57;1.05;;;;;;;;;;4952644;29;20031;-75
2022/06/09 09:18:58;;;;;;;5.72;1.10;;;;;;;;;;4947696;29;20608;-75
2022/06/09 09:22:00;;;;;;;5.47;1.27;;;;;;;;;;4952531;28;20039;-75
2022/06/09 09:24:53;;;;;;;3.90;1.10;;;;;;;;;;4954617;28;20031;-75
2022/06/09 09:27:31;;;;;;;4.82;1.20;;;;;;;;;;4937670;29;20035;-75
2022/06/09 09:30:17;;;;;;;4.18;1.17;;;;;;;;;;4953202;28;20062;-75
2022/06/09 09:32:49;;;;;;;6.78;1.23;;;;;;;;;;4950328;29;20126;-76
2022/06/09 09:35:22;;;;;;;6.55;1.20;;;;;;;;;;4951830;28;20595;-76
2022/06/09 09:37:53;;;;;;;7.18;1.10;;;;;;;;;;4950889;28;20047;-77
2022/06/09 09:40:37;;;;;;;7.50;1.50;;;;;;;;;;4959454;28;20042;-76
2022/06/09 09:43:10;;;;;;;3.55;1.17;;;;;;;;;;4951487;28;20146;-75
2022/06/09 09:45:42;;;;;;;5.30;1.20;;;;;;;;;;4951521;29;20088;-76
2022/06/09 09:48:30;;;;;;;4.53;1.58;;;;;;;;;;4942227;29;20039;-76
2022/06/09 09:51:00;;;;;;;3.55;1.23;;;;;;;;;;4956121;28;20079;-76
2022/06/09 09:53:30;;;;;;;8.20;1.35;;;;;;;;;;4952355;28;20115;-77
2022/06/09 09:56:16;;;;;;;5.55;1.35;;;;;;;;;;4949712;28;20502;-76
2022/06/09 09:58:47;;;;;;;5.47;1.45;;;;;;;;;;4950173;29;20455;-77
2022/06/09 10:01:22;;;;;;;4.85;1.42;;;;;;;;;;4951748;28;20039;-78
2022/06/09 10:09:30;;;;;;;6.60;1.20;;;;;;;;;;4954292;28;20531;-76
2022/06/09 10:12:01;;;;;;;2.22;1.00;;;;;;;;;;4953754;29;20034;-76
2022/06/09 10:14:39;;;;;;;6.55;1.40;;;;;;;;;;4938321;28;20058;-76
2022/06/09 10:17:18;;;;;;;6.93;2.05;;;;;;;;;;4938570;29;20502;-74
2022/06/09 10:19:50;;;;;;;4.35;1.30;;;;;;;;;;4950831;29;20053;-77
2022/06/09 10:22:19;;;;;;;4.07;1.08;;;;;;;;;;4951905;28;20046;-76
2022/06/09 10:24:53;;;;;;;8.85;1.55;;;;;;;;;;4941373;29;20047;-77
2022/06/09 10:27:23;;;;;;;4.15;1.40;;;;;;;;;;4953921;28;20023;-77
2022/06/09 10:30:01;;;;;;;7.47;1.50;;;;;;;;;;4937609;29;20042;-77
2022/06/09 10:32:38;;;;;;;6.20;1.45;;;;;;;;;;4952674;28;20142;-76
2022/06/09 10:35:18;;;;;;;18.17;2.03;;;;;;;;;;4950459;29;20467;-75
2022/06/09 10:37:57;;;;;;;4.93;1.60;;;;;;;;;;4951917;28;20070;-78
2022/06/09 10:40:39;;;;;;;5.78;1.30;;;;;;;;;;4954063;28;20042;-76
2022/06/09 10:43:16;;;;;;;2.50;1.30;;;;;;;;;;4952682;29;20039;-77
2022/06/09 10:45:52;;;;;;;8.02;1.60;;;;;;;;;;4953798;28;20053;-76
2022/06/09 10:57:30;;;;;;;;;;;;;;;;;;4945379;29;20050;-75
2022/06/09 11:00:13;;;;;;;3.45;1.40;;;;;;;;;;4951877;28;20031;-76
2022/06/09 11:02:43;;;;;;;6.03;1.52;;;;;;;;;;4951052;28;20083;-76
2022/06/09 11:05:08;;;;;;;3.72;1.40;;;;;;;;;;4951693;28;20631;-75
2022/06/09 11:07:49;;;;;;;6.75;1.58;;;;;;;;;;4951226;29;20155;-75
2022/06/09 11:10:45;;;;;;;5.18;1.77;;;;;;;;;;4950216;28;20530;-77
2022/06/09 11:13:44;;;;;;;6.15;1.48;;;;;;;;;;4951490;28;20042;-77
2022/06/09 11:16:31;;;;;;;2.58;1.13;;;;;;;;;;4951107;28;20150;-76
2022/06/09 11:19:19;;;;;;;4.82;1.30;;;;;;;;;;4951465;28;20475;-75
2022/06/09 11:22:22;;;;;;;4.45;1.10;;;;;;;;;;4953907;28;20043;-77
2022/06/09 11:25:06;;;;;;;7.55;1.55;;;;;;;;;;4954005;29;20423;-77
2022/06/09 11:28:04;;;;;;;2.35;1.30;;;;;;;;;;4953394;28;20059;-77
2022/06/09 11:31:07;;;;;;;3.95;1.17;;;;;;;;;;4920959;29;20047;-77
2022/06/09 11:34:02;;;;;;;3.15;1.30;;;;;;;;;;4958280;28;20113;-77
2022/06/09 11:36:41;;;;;;;3.78;1.05;;;;;;;;;;4954700;28;20344;-75
2022/06/09 11:39:20;;;;;;;3.08;1.10;;;;;;;;;;4953416;29;20086;-76
2022/06/09 11:42:06;;;;;;;2.67;1.00;;;;;;;;;;4952302;28;20058;-77
2022/06/09 11:44:35;;;;;;;4.30;1.70;;;;;;;;;;4953395;28;20495;-77
2022/06/09 11:47:12;;;;;;;6.03;1.38;;;;;;;;;;4955788;28;20039;-77
2022/06/09 11:49:43;;;;;;;6.82;1.70;;;;;;;;;;4954695;28;20144;-78
2022/06/09 11:52:20;;;;;;;6.07;1.23;;;;;;;;;;4953392;28;20146;-75
2022/06/09 11:54:48;;;;;;;7.68;2.22;;;;;;;;;;4950917;28;20039;-76
2022/06/09 11:57:19;;;;;;;5.72;1.75;;;;;;;;;;4953681;28;20056;-77
2022/06/09 12:00:00;;;;;;;7.00;1.40;;;;;;;;;;4955281;28;20415;-78
2022/06/09 12:02:47;;;;;;;6.53;1.83;;;;;;;;;;4958859;28;20103;-76
2022/06/09 12:05:20;;;;;;;7.45;1.73;;;;;;;;;;4954637;28;20043;-75
2022/06/09 12:08:10;;;;;;;4.63;1.08;;;;;;;;;;4955018;29;20522;-76
2022/06/09 12:11:03;;;;;;;4.32;0.95;;;;;;;;;;4950902;28;20046;-75
2022/06/09 12:13:56;;;;;;;1.98;0.65;;;;;;;;;;4953594;28;20047;-75
2022/06/09 12:16:27;;;;;;;1.58;0.60;;;;;;;;;;4960346;28;20035;-76
2022/06/09 12:19:20;;;;;;;2.95;0.70;;;;;;;;;;4955454;28;20055;-78
2022/06/09 12:21:50;;;;;;;1.73;0.50;;;;;;;;;;4954741;28;20504;-76
2022/06/09 12:24:16;;;;;;;3.03;0.90;;;;;;;;;;4954950;28;20031;-76
2022/06/09 12:26:44;;;;;;;2.22;0.63;;;;;;;;;;4957942;28;20054;-76
2022/06/09 12:29:36;;;;;;;2.28;0.73;;;;;;;;;;4953144;29;20058;-76
2022/06/09 12:32:10;;;;;;;1.83;0.70;;;;;;;;;;4950454;28;20492;-76
2022/06/09 12:34:39;;;;;;;1.92;0.80;;;;;;;;;;4940627;28;20035;-75
2022/06/09 12:37:13;;;;;;;1.67;0.80;;;;;;;;;;4953440;28;20058;-77
2022/06/09 12:39:40;;;;;;;2.75;0.70;;;;;;;;;;4952306;28;20051;-76
2022/06/09 12:42:21;;;;;;;2.55;0.70;;;;;;;;;;4954462;28;20340;-76
2022/06/09 12:45:12;;;;;;;1.63;0.47;;;;;;;;;;4954191;29;20531;-76
2022/06/09 12:47:57;;;;;;;2.17;0.63;;;;;;;;;;4954655;29;20043;-75
2022/06/09 12:50:33;;;;;;;1.00;0.55;;;;;;;;;;4955071;28;20035;-75
2022/06/09 12:53:00;;;;;;;3.35;0.60;;;;;;;;;;4953848;28;20537;-75
2022/06/09 12:55:29;;;;;;;4.28;0.70;;;;;;;;;;4953202;28;20109;-74
2022/06/09 12:58:03;;;;;;;2.85;0.75;;;;;;;;;;4953110;28;20119;-75
2022/06/09 13:00:59;;;;;;;1.55;0.77;;;;;;;;;;4953479;29;20062;-78
2022/06/09 13:03:34;;;;;;;2.05;1.10;;;;;;;;;;4950116;28;20054;-77
2022/06/09 13:06:32;;;;;;;3.72;0.85;;;;;;;;;;4953885;28;20413;-76
2022/06/09 13:09:02;;;;;;;6.03;0.95;;;;;;;;;;4954465;28;20134;-75
2022/06/09 13:14:29;;;;;;;1.92;0.95;;;;;;;;;;4958006;28;20143;-76
2022/06/09 13:16:58;;;;;;;5.05;1.17;;;;;;;;;;4956062;28;20380;-78
2022/06/09 13:19:26;;;;;;;3.60;1.27;;;;;;;;;;4955142;28;20151;-77
2022/06/09 13:21:52;;;;;;;2.35;1.15;;;;;;;;;;4952645;28;20491;-76
2022/06/09 13:24:32;;;;;;;2.53;0.98;;;;;;;;;;4956048;28;20109;-77
2022/06/09 13:26:58;;;;;;;3.22;0.82;;;;;;;;;;4957361;28;20390;-76
2022/06/09 13:29:31;;;;;;;4.85;0.90;;;;;;;;;;4956936;28;20398;-77
2022/06/09 13:32:08;;;;;;;4.32;0.90;;;;;;;;;;4950551;28;20511;-75
2022/06/09 13:34:36;;;;;;;1.95;0.85;;;;;;;;;;4951943;28;20202;-77
2022/06/09 13:37:13;;;;;;;0.77;0.50;;;;;;;;;;4951381;28;20035;-76
2022/06/09 13:39:47;;;;;;;2.15;0.60;;;;;;;;;;4950972;29;20050;-75
2022/06/09 13:42:14;;;;;;;4.03;0.57;;;;;;;;;;4952370;29;20031;-75
2022/06/09 13:44:48;;;;;;;2.55;0.68;;;;;;;;;;4950958;28;20473;-76
2022/06/09 13:47:38;;;;;;;1.50;0.70;;;;;;;;;;4951084;29;20031;-76
2022/06/09 13:50:04;;;;;;;2.15;0.60;;;;;;;;;;4950019;28;20039;-76
2022/06/09 13:52:52;;;;;;;3.92;0.68;;;;;;;;;;4951850;28;20039;-76
2022/06/09 13:55:22;;;;;;;1.90;0.60;;;;;;;;;;4953044;28;20046;-76
2022/06/09 13:57:50;;;;;;;1.52;0.90;;;;;;;;;;4952778;29;20043;-77
2022/06/09 14:00:25;;;;;;;2.67;0.85;;;;;;;;;;4939973;29;20550;-76
2022/06/09 14:03:05;;;;;;;1.05;0.40;;;;;;;;;;4953120;28;20027;-76
2022/06/09 14:05:32;;;;;;;2.25;0.45;;;;;;;;;;4953987;28;20097;-75
2022/06/09 14:07:58;;;;;;;0.63;0.32;;;;;;;;;;4953332;29;20031;-76
2022/06/09 14:10:26;;;;;;;0.38;0.38;;;;;;;;;;4948468;28;20495;-75
2022/06/09 14:12:52;;;;;;;0.63;0.40;;;;;;;;;;4954337;28;20057;-76
2022/06/09 14:15:20;;;;;;;2.50;0.52;;;;;;;;;;4952607;29;20554;-75
2022/06/09 14:17:49;;;;;;;2.03;0.60;;;;;;;;;;4952538;28;20468;-76
2022/06/09 14:20:18;;;;;;;2.70;0.65;;;;;;;;;;4953529;28;20043;-76
2022/06/09 14:22:43;;;;;;;1.65;0.70;;;;;;;;;;4953300;29;20067;-76
2022/06/09 14:25:09;;;;;;;3.42;0.70;;;;;;;;;;4954325;29;20474;-75
2022/06/09 14:27:34;;;;;;;2.78;1.13;;;;;;;;;;4952139;29;20482;-76
2022/06/09 14:30:00;;;;;;;2.95;0.90;;;;;;;;;;4954288;28;20095;-75
2022/06/09 14:32:25;;;;;;;1.35;0.80;;;;;;;;;;4953641;28;20114;-76
2022/06/09 14:34:52;;;;;;;2.00;0.90;;;;;;;;;;4953535;28;20055;-76
2022/06/09 14:37:18;;;;;;;1.75;0.95;;;;;;;;;;4951214;28;20169;-77
2022/06/09 14:39:43;;;;;;;3.70;1.17;;;;;;;;;;4951924;28;20071;-76
2022/06/09 14:42:12;;;;;;;1.63;0.95;;;;;;;;;;4952265;28;20086;-76
2022/06/09 14:44:38;;;;;;;3.53;0.75;;;;;;;;;;4950704;28;20031;-77
2022/06/09 14:47:04;;;;;;;3.67;0.95;;;;;;;;;;4939656;29;20371;-77
2022/06/09 14:49:29;;;;;;;2.25;1.02;;;;;;;;;;4951678;28;20036;-76
2022/06/09 14:51:55;;;;;;;4.25;1.60;;;;;;;;;;4939645;29;20145;-77
2022/06/09 14:54:22;;;;;;;2.78;1.02;;;;;;;;;;4952508;28;20034;-77
2022/06/09 14:56:47;;;;;;;3.17;1.27;;;;;;;;;;4954827;28;20440;-77
2022/06/09 14:59:16;;;;;;;3.40;1.20;;;;;;;;;;4955689;28;20042;-75
2022/06/09 15:01:42;;;;;;;3.30;1.50;;;;;;;;;;4954475;29;20062;-76
2022/06/09 15:04:08;;;;;;;5.35;1.35;;;;;;;;;;4943817;28;20043;-75
2022/06/09 15:06:35;;;;;;;5.97;1.35;;;;;;;;;;4957320;28;20035;-75
2022/06/09 15:09:02;;;;;;;3.92;1.40;;;;;;;;;;4944537;29;20023;-76
2022/06/09 15:11:27;;;;;;;4.18;1.25;;;;;;;;;;4958598;28;20500;-76
2022/06/09 15:13:53;;;;;;;5.00;1.38;;;;;;;;;;4955058;28;20103;-76
2022/06/09 15:16:19;;;;;;;3.53;1.10;;;;;;;;;;4941632;29;20516;-75
2022/06/09 15:18:50;;;;;;;2.63;1.00;;;;;;;;;;4954123;28;20039;-76
2022/06/09 15:21:18;;;;;;;1.88;0.80;;;;;;;;;;4943968;28;20423;-76
2022/06/09 15:23:46;;;;;;;3.22;1.08;;;;;;;;;;4937038;29;20106;-75
2022/06/09 15:26:12;;;;;;;3.00;1.10;;;;;;;;;;4952362;28;20047;-75
2022/06/09 15:28:38;;;;;;;2.25;0.93;;;;;;;;;;4939572;29;20244;-77
2022/06/09 15:31:03;;;;;;;3.00;1.00;;;;;;;;;;4953824;28;20068;-75
2022/06/09 15:33:29;;;;;;;3.58;1.05;;;;;;;;;;4954063;28;20019;-76
2022/06/09 15:35:56;;;;;;;2.65;0.90;;;;;;;;;;4954949;28;20027;-77